createdAt,value
2017-12-21T00:01:16.108Z,6.90
2017-12-21T00:03:43.773Z,7.10
2017-12-21T00:06:12.185Z,7.20
2017-12-21T00:08:39.881Z,6.90
2017-12-21T00:11:07.562Z,7.10
2017-12-21T00:13:35.245Z,7.10
2017-12-21T00:16:02.894Z,7.10
2017-12-21T00:18:30.581Z,7.40
2017-12-21T00:20:58.232Z,7.40
2017-12-21T00:23:25.853Z,7.40
2017-12-21T00:25:53.512Z,7.40
2017-12-21T00:28:21.347Z,7.40
2017-12-21T00:30:49.011Z,7.30
2017-12-21T00:33:16.630Z,7.40
2017-12-21T00:35:44.290Z,7.30
2017-12-21T00:38:12.994Z,7.50
2017-12-21T00:40:40.674Z,7.20
2017-12-21T00:43:08.347Z,7.50
2017-12-21T00:45:36.196Z,7.40
2017-12-21T00:48:03.853Z,7.30
2017-12-21T00:50:31.470Z,7.40
2017-12-21T00:52:59.129Z,7.40
2017-12-21T00:55:26.754Z,7.40
2017-12-21T00:57:54.370Z,7.40
2017-12-21T01:00:22.188Z,7.40
2017-12-21T01:02:49.806Z,7.40
2017-12-21T01:05:17.429Z,7.40
2017-12-21T01:07:45.174Z,7.40
2017-12-21T01:10:12.937Z,7.50
2017-12-21T01:12:41.318Z,7.40
2017-12-21T01:15:08.955Z,7.50
2017-12-21T01:17:36.619Z,7.40
2017-12-21T01:20:04.265Z,7.40
2017-12-21T01:22:31.921Z,7.40
2017-12-21T01:24:59.573Z,7.40
2017-12-21T01:27:27.256Z,7.40
2017-12-21T01:29:54.873Z,7.50
2017-12-21T01:32:22.545Z,7.40
2017-12-21T01:34:50.259Z,7.40
2017-12-21T01:37:17.918Z,7.40
2017-12-21T01:39:45.621Z,7.50
2017-12-21T01:42:14.058Z,7.50
2017-12-21T01:44:41.935Z,7.50
2017-12-21T01:47:09.549Z,7.40
2017-12-21T01:49:37.210Z,7.50
2017-12-21T01:52:04.910Z,7.50
2017-12-21T01:54:32.835Z,7.40
2017-12-21T01:57:01.082Z,7.50
2017-12-21T01:59:29.503Z,7.40
2017-12-21T02:01:57.207Z,7.30
2017-12-21T02:04:24.829Z,7.50
2017-12-21T02:06:52.531Z,7.40
2017-12-21T02:09:20.470Z,7.50
2017-12-21T02:11:48.141Z,7.40
2017-12-21T02:14:15.826Z,7.50
2017-12-21T02:16:43.504Z,7.40
2017-12-21T02:19:11.166Z,7.40
2017-12-21T02:21:38.830Z,7.50
2017-12-21T02:24:06.531Z,7.50
2017-12-21T02:26:34.409Z,7.40
2017-12-21T02:29:02.113Z,7.50
2017-12-21T02:31:29.812Z,7.40
2017-12-21T02:33:57.450Z,7.80
2017-12-21T02:36:25.101Z,7.40
2017-12-21T02:38:52.996Z,7.50
2017-12-21T02:41:20.721Z,7.70
2017-12-21T02:43:48.429Z,7.40
2017-12-21T02:46:16.127Z,7.80
2017-12-21T02:48:43.786Z,7.50
2017-12-21T02:51:12.269Z,7.40
2017-12-21T02:53:40.698Z,7.60
2017-12-21T02:56:08.360Z,7.80
2017-12-21T02:58:36.086Z,7.70
2017-12-21T03:01:03.746Z,7.70
2017-12-21T03:03:31.442Z,7.60
2017-12-21T03:05:59.311Z,7.70
2017-12-21T03:08:27.077Z,7.60
2017-12-21T03:10:54.780Z,7.70
2017-12-21T03:13:23.210Z,7.70
2017-12-21T03:15:50.922Z,7.60
2017-12-21T03:18:19.354Z,7.90
2017-12-21T03:20:47.118Z,7.70
2017-12-21T03:23:14.798Z,7.60
2017-12-21T03:25:42.466Z,7.70
2017-12-21T03:28:10.096Z,7.70
2017-12-21T03:30:38.593Z,7.90
2017-12-21T03:33:06.242Z,7.60
2017-12-21T03:35:33.910Z,7.70
2017-12-21T03:38:01.741Z,7.90
2017-12-21T03:40:29.625Z,7.80
2017-12-21T03:42:57.262Z,7.70
2017-12-21T03:45:25.071Z,7.70
2017-12-21T03:47:52.730Z,7.60
2017-12-21T03:50:21.039Z,7.70
2017-12-21T03:52:48.669Z,7.90
2017-12-21T03:55:16.362Z,7.80
2017-12-21T03:57:44.791Z,7.80
2017-12-21T04:00:12.473Z,7.90
2017-12-21T04:02:40.114Z,7.80
2017-12-21T04:05:07.780Z,7.60
2017-12-21T04:07:35.433Z,7.70
2017-12-21T04:10:03.050Z,7.90
2017-12-21T04:12:30.718Z,7.80
2017-12-21T04:14:58.982Z,7.80
2017-12-21T04:17:26.666Z,7.70
2017-12-21T04:19:54.279Z,7.80
2017-12-21T04:22:22.107Z,7.60
2017-12-21T04:24:49.890Z,7.70
2017-12-21T04:27:17.541Z,7.80
2017-12-21T04:29:45.166Z,7.80
2017-12-21T04:32:12.940Z,7.70
2017-12-21T04:34:40.589Z,7.60
2017-12-21T04:37:08.294Z,7.80
2017-12-21T04:39:35.965Z,7.80
2017-12-21T04:42:03.665Z,7.70
2017-12-21T04:44:32.109Z,7.90
2017-12-21T04:46:59.746Z,7.80
2017-12-21T04:49:27.442Z,7.70
2017-12-21T04:51:55.900Z,7.70
2017-12-21T04:54:23.861Z,7.50
2017-12-21T04:56:51.509Z,7.60
2017-12-21T04:59:19.233Z,7.80
2017-12-21T05:01:46.942Z,7.70
2017-12-21T05:04:19.359Z,7.80
2017-12-21T05:06:47.385Z,7.80
2017-12-21T05:09:16.665Z,8.00
2017-12-21T05:11:44.996Z,7.90
2017-12-21T05:14:13.647Z,7.80
2017-12-21T05:16:41.317Z,7.60
2017-12-21T05:19:08.989Z,7.70
2017-12-21T05:21:37.221Z,7.90
2017-12-21T05:24:05.088Z,7.80
2017-12-21T05:26:32.761Z,7.80
2017-12-21T05:29:00.836Z,7.70
2017-12-21T05:31:29.242Z,7.70
2017-12-21T05:33:57.243Z,7.80
2017-12-21T05:36:24.870Z,7.70
2017-12-21T05:38:53.310Z,7.80
2017-12-21T05:41:20.929Z,7.90
2017-12-21T05:43:48.826Z,7.90
2017-12-21T05:46:17.497Z,7.70
2017-12-21T05:48:45.114Z,7.60
2017-12-21T05:51:13.558Z,7.80
2017-12-21T05:53:41.254Z,8.10
2017-12-21T05:56:09.090Z,7.90
2017-12-21T05:58:36.854Z,7.90
2017-12-21T06:01:04.509Z,7.60
2017-12-21T06:03:32.154Z,7.70
2017-12-21T06:05:59.826Z,7.80
2017-12-21T06:08:27.684Z,7.80
2017-12-21T06:10:55.305Z,7.80
2017-12-21T06:13:22.958Z,7.80
2017-12-21T06:15:50.888Z,7.80
2017-12-21T06:18:18.565Z,7.80
2017-12-21T06:20:47.119Z,7.80
2017-12-21T06:23:15.598Z,7.70
2017-12-21T06:25:43.226Z,7.90
2017-12-21T06:28:10.928Z,7.80
2017-12-21T06:30:38.780Z,7.70
2017-12-21T06:33:06.411Z,7.70
2017-12-21T06:35:34.073Z,7.90
2017-12-21T06:38:01.756Z,7.80
2017-12-21T06:40:29.370Z,7.50
2017-12-21T06:42:57.006Z,7.60
2017-12-21T06:45:24.671Z,7.70
2017-12-21T06:47:52.325Z,7.30
2017-12-21T06:50:25.769Z,7.50
2017-12-21T06:52:53.470Z,7.90
2017-12-21T06:55:21.128Z,7.40
2017-12-21T06:57:49.295Z,7.50
2017-12-21T07:00:17.604Z,7.40
2017-12-21T07:02:45.990Z,7.80
2017-12-21T07:05:13.674Z,7.60
2017-12-21T07:07:41.595Z,7.40
2017-12-21T07:10:09.284Z,7.50
2017-12-21T07:12:36.945Z,7.30
2017-12-21T07:15:04.577Z,7.50
2017-12-21T07:17:32.330Z,7.40
2017-12-21T07:19:59.981Z,7.50
2017-12-21T07:22:27.597Z,7.40
2017-12-21T07:24:55.312Z,7.50
2017-12-21T07:27:22.979Z,7.60
2017-12-21T07:29:50.593Z,7.50
2017-12-21T07:32:19.214Z,7.30
2017-12-21T07:34:47.404Z,7.30
2017-12-21T07:37:15.038Z,7.50
2017-12-21T07:39:42.698Z,7.60
2017-12-21T07:42:10.926Z,7.50
2017-12-21T07:44:38.601Z,7.40
2017-12-21T07:47:06.409Z,7.50
2017-12-21T07:49:34.177Z,7.50
2017-12-21T07:52:01.794Z,7.40
2017-12-21T07:54:29.418Z,7.20
2017-12-21T07:56:58.070Z,7.40
2017-12-21T07:59:25.721Z,7.20
2017-12-21T08:01:54.551Z,7.00
2017-12-21T08:04:23.287Z,7.20
2017-12-21T08:06:50.944Z,7.20
2017-12-21T08:09:18.576Z,7.00
2017-12-21T08:11:46.253Z,6.90
2017-12-21T08:14:13.871Z,7.20
2017-12-21T08:16:41.529Z,7.00
2017-12-21T08:19:09.257Z,7.00
2017-12-21T08:21:36.866Z,6.90
2017-12-21T08:24:04.529Z,7.10
2017-12-21T08:26:32.162Z,7.10
2017-12-21T08:28:59.849Z,6.80
2017-12-21T08:31:27.676Z,6.60
2017-12-21T08:33:55.594Z,6.70
2017-12-21T08:36:23.466Z,6.80
2017-12-21T08:38:51.079Z,6.60
2017-12-21T08:41:18.743Z,6.70
2017-12-21T08:43:46.365Z,6.50
2017-12-21T08:46:14.252Z,6.60
2017-12-21T08:48:41.890Z,6.60
2017-12-21T08:51:09.542Z,6.30
2017-12-21T08:53:37.354Z,6.40
2017-12-21T08:56:06.003Z,6.40
2017-12-21T08:58:33.873Z,6.20
2017-12-21T09:01:01.491Z,6.30
2017-12-21T09:03:29.460Z,6.30
2017-12-21T09:05:57.125Z,6.00
2017-12-21T09:08:24.787Z,6.20
2017-12-21T09:10:52.437Z,6.20
2017-12-21T09:13:20.093Z,6.20
2017-12-21T09:15:47.858Z,6.30
2017-12-21T09:18:15.455Z,6.00
2017-12-21T09:20:43.114Z,6.10
2017-12-21T09:23:10.757Z,6.00
2017-12-21T09:25:38.442Z,6.10
2017-12-21T09:28:06.301Z,6.40
2017-12-21T09:30:33.990Z,6.40
2017-12-21T09:33:01.642Z,6.20
2017-12-21T09:35:29.286Z,6.20
2017-12-21T09:37:57.046Z,6.10
2017-12-21T09:40:24.665Z,6.70
2017-12-21T09:42:52.572Z,6.20
2017-12-21T09:45:20.815Z,6.20
2017-12-21T09:47:48.474Z,6.40
2017-12-21T09:50:16.385Z,6.40
2017-12-21T09:52:44.239Z,6.00
2017-12-21T09:55:11.915Z,6.10
2017-12-21T09:57:39.540Z,6.00
2017-12-21T10:00:07.678Z,6.10
2017-12-21T10:02:35.290Z,6.10
2017-12-21T10:05:03.701Z,6.10
2017-12-21T10:07:32.086Z,6.70
2017-12-21T10:10:00.026Z,6.50
2017-12-21T10:12:27.977Z,6.60
2017-12-21T10:14:55.581Z,6.70
2017-12-21T10:17:23.229Z,6.30
2017-12-21T10:19:50.894Z,6.60
2017-12-21T10:22:18.523Z,6.70
2017-12-21T10:24:46.205Z,6.10
2017-12-21T10:27:14.605Z,6.10
2017-12-21T10:29:42.258Z,6.50
2017-12-21T10:32:10.676Z,6.60
2017-12-21T10:34:38.297Z,6.50
2017-12-21T10:37:06.032Z,6.60
2017-12-21T10:39:33.652Z,6.30
2017-12-21T10:42:01.937Z,6.40
2017-12-21T10:44:29.735Z,6.40
2017-12-21T10:46:57.386Z,6.70
2017-12-21T10:49:25.018Z,6.50
2017-12-21T10:51:52.682Z,6.60
2017-12-21T10:54:20.562Z,6.60
2017-12-21T10:56:48.166Z,6.30
2017-12-21T10:59:15.827Z,6.30
2017-12-21T11:01:43.444Z,6.60
2017-12-21T11:04:11.305Z,6.00
2017-12-21T11:06:38.934Z,6.50
2017-12-21T11:09:06.563Z,6.30
2017-12-21T11:11:35.002Z,6.60
2017-12-21T11:14:02.694Z,6.40
2017-12-21T11:16:30.340Z,6.60
2017-12-21T11:18:58.050Z,6.30
2017-12-21T11:21:25.865Z,6.30
2017-12-21T11:23:53.525Z,6.10
2017-12-21T11:26:21.242Z,6.30
2017-12-21T11:28:49.568Z,6.60
2017-12-21T11:31:17.799Z,6.30
2017-12-21T11:33:45.599Z,6.30
2017-12-21T11:36:13.226Z,6.70
2017-12-21T11:38:40.915Z,6.50
2017-12-21T11:41:08.577Z,6.60
2017-12-21T11:43:36.235Z,6.70
2017-12-21T11:46:04.813Z,6.50
2017-12-21T11:48:32.444Z,6.60
2017-12-21T11:51:02.299Z,6.70
2017-12-21T11:53:29.982Z,6.50
2017-12-21T11:56:05.167Z,6.60
2017-12-21T11:58:33.710Z,6.60
2017-12-21T12:01:02.954Z,6.70
2017-12-21T12:03:30.657Z,6.70
2017-12-21T12:05:58.325Z,6.50
2017-12-21T12:08:26.027Z,6.60
2017-12-21T12:10:53.641Z,6.70
2017-12-21T12:13:21.426Z,6.50
2017-12-21T12:15:49.104Z,6.60
2017-12-21T12:18:16.759Z,6.60
2017-12-21T12:20:44.377Z,6.30
2017-12-21T12:23:12.045Z,6.70
2017-12-21T12:25:39.986Z,6.50
2017-12-21T12:28:08.297Z,6.50
2017-12-21T12:30:36.126Z,6.60
2017-12-21T12:33:04.509Z,6.70
2017-12-21T12:35:32.137Z,6.40
2017-12-21T12:37:59.808Z,6.70
2017-12-21T12:40:27.461Z,6.50
2017-12-21T12:42:55.376Z,6.60
2017-12-21T12:45:23.077Z,6.70
2017-12-21T12:47:50.770Z,6.70
2017-12-21T12:50:18.452Z,6.50
2017-12-21T12:52:46.300Z,6.70
2017-12-21T12:55:13.957Z,6.50
2017-12-21T12:57:41.831Z,6.90
2017-12-21T13:00:09.674Z,6.70
2017-12-21T13:02:38.002Z,6.80
2017-12-21T13:05:06.431Z,7.00
2017-12-21T13:07:34.142Z,6.90
2017-12-21T13:10:02.536Z,7.00
2017-12-21T13:12:30.218Z,6.60
2017-12-21T13:14:59.269Z,7.00
2017-12-21T13:17:27.647Z,7.00
2017-12-21T13:19:56.082Z,6.70
2017-12-21T13:22:23.755Z,6.80
2017-12-21T13:24:51.373Z,6.90
2017-12-21T13:27:19.066Z,7.00
2017-12-21T13:29:47.416Z,7.00
2017-12-21T13:32:15.250Z,7.00
2017-12-21T13:34:42.927Z,7.00
2017-12-21T13:37:11.357Z,6.90
2017-12-21T13:39:38.974Z,6.80
2017-12-21T13:42:06.655Z,7.00
2017-12-21T13:44:34.870Z,7.00
2017-12-21T13:47:02.486Z,6.90
2017-12-21T13:49:30.102Z,7.00
2017-12-21T13:51:58.533Z,7.00
2017-12-21T13:54:26.168Z,6.90
2017-12-21T13:56:53.970Z,6.70
2017-12-21T13:59:22.235Z,6.70
2017-12-21T14:01:49.882Z,7.00
2017-12-21T14:04:18.234Z,7.00
2017-12-21T14:06:45.862Z,6.90
2017-12-21T14:09:13.527Z,7.00
2017-12-21T14:11:43.152Z,7.00
2017-12-21T14:14:11.248Z,6.90
2017-12-21T14:16:38.899Z,7.00
2017-12-21T14:19:06.511Z,6.90
2017-12-21T14:21:34.161Z,7.00
2017-12-21T14:24:01.823Z,7.00
2017-12-21T14:26:29.671Z,6.90
2017-12-21T14:28:57.419Z,6.70
2017-12-21T14:31:25.038Z,6.80
2017-12-21T14:33:52.857Z,7.00
2017-12-21T14:36:20.718Z,7.00
2017-12-21T14:38:49.173Z,7.00
2017-12-21T14:41:17.165Z,6.60
2017-12-21T14:43:44.929Z,7.00
2017-12-21T14:46:13.522Z,6.70
2017-12-21T14:48:41.287Z,6.90
2017-12-21T14:51:09.052Z,6.90
2017-12-21T14:53:36.899Z,7.00
2017-12-21T14:56:05.130Z,7.00
2017-12-21T14:58:32.737Z,7.00
2017-12-21T15:01:00.738Z,6.90
2017-12-21T15:03:28.362Z,7.10
2017-12-21T15:05:55.985Z,7.00
2017-12-21T15:08:23.819Z,7.00
2017-12-21T15:10:51.549Z,6.90
2017-12-21T15:13:19.174Z,7.00
2017-12-21T15:15:47.076Z,6.70
2017-12-21T15:18:15.062Z,6.50
2017-12-21T15:20:42.816Z,6.60
2017-12-21T15:23:10.494Z,7.00
2017-12-21T15:25:38.354Z,6.90
2017-12-21T15:28:06.305Z,7.00
2017-12-21T15:30:33.981Z,6.60
2017-12-21T15:33:01.593Z,6.90
2017-12-21T15:35:29.482Z,6.90
2017-12-21T15:37:57.140Z,6.70
2017-12-21T15:40:24.750Z,6.40
2017-12-21T15:42:52.422Z,6.70
2017-12-21T15:45:20.468Z,6.40
2017-12-21T15:47:48.131Z,6.40
2017-12-21T15:50:16.061Z,6.60
2017-12-21T15:52:43.693Z,6.70
2017-12-21T15:55:11.978Z,6.40
2017-12-21T15:57:39.942Z,6.40
2017-12-21T16:00:07.550Z,6.70
2017-12-21T16:02:35.166Z,6.40
2017-12-21T16:05:02.946Z,6.80
2017-12-21T16:07:30.605Z,6.60
2017-12-21T16:09:58.383Z,6.70
2017-12-21T16:12:26.027Z,6.70
2017-12-21T16:14:53.908Z,6.50
2017-12-21T16:17:21.537Z,6.60
2017-12-21T16:19:49.203Z,6.70
2017-12-21T16:22:16.826Z,6.50
2017-12-21T16:24:44.490Z,6.60
2017-12-21T16:27:12.150Z,6.70
2017-12-21T16:29:40.572Z,6.30
2017-12-21T16:32:08.186Z,6.30
2017-12-21T16:34:36.020Z,6.10
2017-12-21T16:37:04.450Z,6.10
2017-12-21T16:39:32.177Z,6.40
2017-12-21T16:42:00.614Z,6.10
2017-12-21T16:44:28.293Z,6.40
2017-12-21T16:46:57.615Z,6.70
2017-12-21T16:49:26.010Z,6.10
2017-12-21T16:51:54.436Z,6.60
2017-12-21T16:54:22.194Z,6.30
2017-12-21T16:56:49.872Z,6.60
2017-12-21T16:59:17.842Z,6.70
2017-12-21T17:01:45.461Z,6.40
2017-12-21T17:04:13.123Z,6.70
2017-12-21T17:06:40.770Z,6.50
2017-12-21T17:09:08.430Z,6.60
2017-12-21T17:11:36.111Z,6.60
2017-12-21T17:14:04.605Z,6.60
2017-12-21T17:16:32.261Z,6.60
2017-12-21T17:19:00.574Z,6.70
2017-12-21T17:21:28.547Z,6.40
2017-12-21T17:23:56.208Z,6.40
2017-12-21T17:26:24.643Z,6.40
2017-12-21T17:28:52.780Z,6.40
2017-12-21T17:31:20.457Z,6.40
2017-12-21T17:33:48.101Z,6.40
2017-12-21T17:36:15.775Z,6.70
2017-12-21T17:38:43.677Z,6.50
2017-12-21T17:41:11.515Z,6.60
2017-12-21T17:43:39.158Z,6.70
2017-12-21T17:46:06.810Z,6.50
2017-12-21T17:48:34.513Z,6.60
2017-12-21T17:51:02.230Z,6.60
2017-12-21T17:53:30.636Z,6.70
2017-12-21T17:55:59.868Z,6.60
2017-12-21T17:58:27.519Z,6.60
2017-12-21T18:00:55.186Z,6.60
2017-12-21T18:03:23.342Z,6.70
2017-12-21T18:05:51.270Z,6.40
2017-12-21T18:08:18.909Z,6.40
2017-12-21T18:10:46.606Z,6.40
2017-12-21T18:13:14.288Z,6.70
2017-12-21T18:15:41.951Z,6.50
2017-12-21T18:18:09.602Z,6.60
2017-12-21T18:20:37.292Z,6.70
2017-12-21T18:23:05.035Z,6.60
2017-12-21T18:25:33.261Z,6.70
2017-12-21T18:28:00.882Z,6.70
2017-12-21T18:30:28.540Z,6.50
2017-12-21T18:32:56.187Z,6.60
2017-12-21T18:35:23.856Z,7.00
2017-12-21T18:37:51.471Z,6.90
2017-12-21T18:40:19.373Z,6.90
2017-12-21T18:42:47.923Z,7.00
2017-12-21T18:45:15.579Z,6.80
2017-12-21T18:47:43.273Z,6.70
2017-12-21T18:50:10.944Z,6.50
2017-12-21T18:52:39.252Z,6.80
2017-12-21T18:55:06.926Z,6.90
2017-12-21T18:57:34.594Z,7.00
2017-12-21T19:00:03.047Z,6.60
2017-12-21T19:02:30.691Z,6.80
2017-12-21T19:04:58.988Z,6.80
2017-12-21T19:07:26.631Z,6.60
2017-12-21T19:09:54.273Z,7.00
2017-12-21T19:12:21.961Z,6.70
2017-12-21T19:14:49.644Z,6.50
2017-12-21T19:17:17.274Z,6.60
2017-12-21T19:19:45.030Z,6.70
2017-12-21T19:22:12.650Z,6.50
2017-12-21T19:24:40.642Z,6.60
2017-12-21T19:27:08.333Z,6.90
2017-12-21T19:29:36.085Z,6.70
2017-12-21T19:32:03.788Z,6.50
2017-12-21T19:34:31.974Z,6.60
2017-12-21T19:36:59.680Z,6.70
2017-12-21T19:39:27.529Z,6.80
2017-12-21T19:41:55.878Z,6.60
2017-12-21T19:44:23.578Z,6.70
2017-12-21T19:46:51.428Z,6.50
2017-12-21T19:49:19.073Z,6.60
2017-12-21T19:51:47.094Z,6.60
2017-12-21T19:54:14.938Z,7.00
2017-12-21T19:56:42.700Z,6.70
2017-12-21T19:59:10.378Z,6.50
2017-12-21T20:01:38.062Z,6.80
2017-12-21T20:04:06.231Z,6.90
2017-12-21T20:06:34.383Z,7.00
2017-12-21T20:09:01.998Z,6.90
2017-12-21T20:11:29.662Z,6.50
2017-12-21T20:13:57.363Z,6.70
2017-12-21T20:16:25.110Z,6.50
2017-12-21T20:18:52.762Z,6.90
2017-12-21T20:21:20.390Z,7.00
2017-12-21T20:23:48.162Z,7.00
2017-12-21T20:26:16.161Z,6.90
2017-12-21T20:28:43.844Z,7.00
2017-12-21T20:31:11.514Z,6.90
2017-12-21T20:33:39.753Z,7.10
2017-12-21T20:36:07.608Z,6.70
2017-12-21T20:38:40.127Z,7.10
2017-12-21T20:41:11.187Z,7.10
2017-12-21T20:43:39.801Z,6.80
2017-12-21T20:46:08.390Z,6.90
2017-12-21T20:48:36.057Z,6.90
2017-12-21T20:51:03.938Z,7.10
2017-12-21T20:53:31.623Z,6.80
2017-12-21T20:55:59.454Z,6.90
2017-12-21T20:58:27.343Z,7.10
2017-12-21T21:00:55.026Z,6.80
2017-12-21T21:03:22.683Z,6.80
2017-12-21T21:05:50.503Z,6.80
2017-12-21T21:08:18.154Z,6.90
2017-12-21T21:10:45.885Z,7.10
2017-12-21T21:13:13.517Z,6.80
2017-12-21T21:15:42.670Z,7.10
2017-12-21T21:18:10.549Z,7.00
2017-12-21T21:20:38.653Z,6.90
2017-12-21T21:23:07.098Z,6.90
2017-12-21T21:25:35.065Z,6.90
2017-12-21T21:28:03.363Z,7.10
2017-12-21T21:30:31.044Z,7.00
2017-12-21T21:32:58.736Z,6.90
2017-12-21T21:35:26.422Z,7.00
2017-12-21T21:37:54.102Z,6.90
2017-12-21T21:40:22.038Z,7.00
2017-12-21T21:42:49.709Z,7.00
2017-12-21T21:45:17.370Z,7.00
2017-12-21T21:47:45.021Z,7.00
2017-12-21T21:50:12.695Z,7.00
2017-12-21T21:52:40.354Z,7.00
2017-12-21T21:55:08.218Z,6.90
2017-12-21T21:57:36.927Z,7.00
2017-12-21T22:00:05.596Z,6.90
2017-12-21T22:02:33.236Z,6.80
2017-12-21T22:05:00.869Z,6.80
2017-12-21T22:07:28.912Z,6.80
2017-12-21T22:09:57.406Z,6.60
2017-12-21T22:12:25.113Z,6.60
2017-12-21T22:14:52.796Z,6.70
2017-12-21T22:17:20.486Z,6.60
2017-12-21T22:19:48.185Z,7.00
2017-12-21T22:22:15.813Z,6.70
2017-12-21T22:24:43.447Z,6.80
2017-12-21T22:27:11.132Z,6.60
2017-12-21T22:29:38.826Z,6.90
2017-12-21T22:32:06.518Z,6.50
2017-12-21T22:34:34.203Z,6.60
2017-12-21T22:37:02.730Z,6.90
2017-12-21T22:39:30.365Z,7.00
2017-12-21T22:41:58.068Z,6.90
2017-12-21T22:44:25.686Z,6.80
2017-12-21T22:46:53.329Z,6.60
2017-12-21T22:49:21.852Z,6.70
2017-12-21T22:51:49.491Z,6.40
2017-12-21T22:54:17.181Z,6.70
2017-12-21T22:56:45.058Z,6.50
2017-12-21T22:59:12.685Z,6.70
2017-12-21T23:01:40.586Z,7.00
2017-12-21T23:04:08.277Z,6.90
2017-12-21T23:06:35.901Z,6.70
2017-12-21T23:09:03.622Z,6.40
2017-12-21T23:11:31.305Z,6.40
2017-12-21T23:13:58.976Z,7.00
2017-12-21T23:16:27.434Z,6.90
2017-12-21T23:18:55.642Z,7.00
2017-12-21T23:21:23.593Z,6.90
2017-12-21T23:23:51.293Z,6.40
2017-12-21T23:26:18.934Z,7.00
2017-12-21T23:28:46.690Z,6.90
2017-12-21T23:31:14.373Z,6.90
2017-12-21T23:33:42.026Z,6.90
2017-12-21T23:36:10.062Z,7.00
2017-12-21T23:38:37.708Z,6.70
2017-12-21T23:41:05.508Z,6.70
2017-12-21T23:43:33.146Z,6.50
2017-12-21T23:46:01.066Z,6.90
2017-12-21T23:48:29.459Z,6.40
2017-12-21T23:50:58.153Z,6.90
2017-12-21T23:53:26.961Z,6.90
2017-12-21T23:55:54.854Z,6.90
2017-12-21T23:58:22.509Z,7.10
